»·PEaware :: N94790 KSNA-KSNA

N94790 :: KSNA-KSNA

FLIGHT INFORMATION

Flight Status: Arrived
Operator: Privately registered:
United States
More flights under this callsign
Pilot: Johnathan E. (26698)
Aircraft: CESSNA 172 SKYHAWK
(C172)
More flights by this aircraft type
Origin: KSNA John Wayne-Orange Co
United States
Destination: KSNA John Wayne-Orange Co
United States
More flights between these airports :: More routes between these airports
Route: +SLI
File this flight plan on PilotEdge
Remarks: I-1 rating
Altitude:
(Current/Filed)
3,000ft
Speed:
(Current/Filed)
110kts
Departed: 26-Nov-19 06:39 PM
Arrived: 26-Nov-19 07:10 PM
Distance/Time
Traveled:
0nm/0:31
Distance/Time
To Go:
Arrived

Flight Plot

Page will automatically refresh every two minutes.


Map Options




Map Legend


Flown Route
Filed Route
Departure Airport
Arrival Airport
Navaid (VOR, NDB)
Fix

Horizontal Profiles

Position Reports

Time Latitude Longitude Heading Altitude Ground
Speed
26-Nov-19 18:20 33.680437 -117.861696 299 60ft 0kts
26-Nov-19 18:21 33.680437 -117.861696 299 60ft 0kts
26-Nov-19 18:22 33.680437 -117.861696 299 60ft 0kts
26-Nov-19 18:23 33.680437 -117.861696 299 60ft 0kts
26-Nov-19 18:24 33.680437 -117.861696 299 60ft 0kts
26-Nov-19 18:25 33.680437 -117.861696 299 60ft 0kts
26-Nov-19 18:26 33.680437 -117.861696 299 60ft 0kts
26-Nov-19 18:27 33.680514 -117.862189 271 60ft 11kts
26-Nov-19 18:28 33.680617 -117.862991 296 60ft 0kts
26-Nov-19 18:29 33.680617 -117.862991 296 60ft 0kts
26-Nov-19 18:30 33.680617 -117.862991 296 60ft 0kts
26-Nov-19 18:31 33.680617 -117.862991 296 60ft 0kts
26-Nov-19 18:32 33.680617 -117.862991 296 60ft 0kts
26-Nov-19 18:33 33.680617 -117.862991 296 60ft 0kts
26-Nov-19 18:34 33.680617 -117.862991 296 60ft 0kts
26-Nov-19 18:35 33.680617 -117.862991 296 60ft 0kts
26-Nov-19 18:36 33.680617 -117.862991 296 60ft 0kts
26-Nov-19 18:37 33.680617 -117.862991 296 60ft 0kts
26-Nov-19 18:38 33.679848 -117.864318 208 60ft 49kts
26-Nov-19 18:39 33.664087 -117.878191 229 800ft 82kts
26-Nov-19 18:40 33.647931 -117.900687 231 1700ft 94kts
26-Nov-19 18:41 33.629419 -117.925052 220 2051ft 128kts
26-Nov-19 18:42 33.602644 -117.948288 237 2397ft 118kts
26-Nov-19 18:43 33.617643 -117.967036 3 2981ft 113kts
26-Nov-19 18:44 33.645819 -117.960710 18 3014ft 128kts
26-Nov-19 18:45 33.673416 -117.948856 17 2955ft 129kts
26-Nov-19 18:46 33.700479 -117.935210 23 2966ft 127kts
26-Nov-19 18:47 33.727610 -117.921986 21 2955ft 127kts
26-Nov-19 18:48 33.754437 -117.908944 21 2960ft 127kts
26-Nov-19 18:49 33.780777 -117.895437 25 3000ft 125kts
26-Nov-19 18:50 33.806986 -117.883060 25 3028ft 126kts
26-Nov-19 18:51 33.833119 -117.871037 14 3051ft 126kts
26-Nov-19 18:52 33.859857 -117.858809 22 2999ft 129kts
26-Nov-19 18:53 33.886441 -117.847063 23 3010ft 127kts
26-Nov-19 18:54 33.912201 -117.834613 20 2987ft 128kts
26-Nov-19 18:55 33.937249 -117.822204 23 2952ft 128kts
26-Nov-19 18:56 33.946679 -117.796120 112 2943ft 125kts
26-Nov-19 18:57 33.935707 -117.763673 107 3070ft 129kts
26-Nov-19 18:58 33.912985 -117.744738 172 3096ft 129kts
26-Nov-19 18:59 33.884234 -117.756528 206 3101ft 129kts
26-Nov-19 19:00 33.855223 -117.764309 176 3036ft 131kts
26-Nov-19 19:01 33.826803 -117.769354 220 2938ft 132kts
26-Nov-19 19:02 33.806713 -117.795458 221 2736ft 127kts
26-Nov-19 19:03 33.779885 -117.806639 203 2286ft 123kts
26-Nov-19 19:04 33.755152 -117.822102 205 1904ft 122kts
26-Nov-19 19:05 33.730486 -117.835411 203 1547ft 126kts
26-Nov-19 19:06 33.708777 -117.847000 206 886ft 94kts
26-Nov-19 19:07 33.693905 -117.857312 207 394ft 81kts
26-Nov-19 19:08 33.681569 -117.865164 208 87ft 54kts
26-Nov-19 19:09 33.677672 -117.869066 206 60ft 10kts
26-Nov-19 19:10 33.677199 -117.869343 205 60ft 0kts

Navigation Log

Ident Type
Flight plan parsing failed, navigation log unavailable